Terminal Aerodrome Forecast
Issued by NWS

Home | Current Version | Previous Version | Text Only | Print | Product List | Glossary On
Versions: 1 2 3 4 5 6 7 8 9 10 11 12 13 14 15 16 17 18 19
869
FTUS44 KCRP 202339
TAFLRD
TAF
KLRD 202339Z 2100/2124 VRB03KT P6SM SKC
     FM210800 VRB03KT 2SM BR BKN006
      TEMPO 2108/2112 3/4SM BR BKN002
     FM211200 28006KT P6SM SCT008
     FM211900 25015G20KT P6SM SKC=

USA.gov is the U.S. government's official web portal to all federal, state and local government web resources and services.